Flight Track Log - Related Links

Times and Time Zones

All times are in EDT time to prevent confusion due to time zone crossing. See the GJS6221 flight status page for this flight to view local times or setup timezone preferences in your user account.

Time Position Orientation Groundspeed Altitude Reporting Facility
EDT Latitude Longitude Course Direction KTS MPH feet Rate Location/Type
Mon 07:21:30 AM 45.4475 -73.7536 207° Southwest 463 533 1,700  Level Boston Center
Mon 07:22:31 AM 45.4031 -73.8058 220° Southwest 332 382 4,000 2,400 Climbing Boston Center
Mon 07:23:30 AM 45.3319 -73.8425 200° South 296 341 6,500 3,176 Climbing Boston Center
Mon 07:24:30 AM 45.2544 -73.8789 198° South 286 329 10,300 2,727 Climbing Boston Center
Mon 07:25:31 AM 45.1683 -73.9208 199° South 305 351 12,000 1,785 Climbing Boston Center
Mon 07:26:00 AM 44.9855 -74.0818 207° Southwest  Level FlightAware Approximate
Mon 07:26:31 AM 45.0719 -73.9714 200° South 345 397 13,900  Level Boston Center
Mon 07:27:31 AM 44.9567 -74.0269 199° South 383 441 16,200 2,218 Climbing Boston Center
Mon 07:28:30 AM 44.8497 -74.0767 198° South 410 472 18,300 1,950 Climbing Boston Center
Mon 07:29:31 AM 44.7311 -74.0675 177° South 417 480 20,100 1,736 Climbing Boston Center
Mon 07:30:31 AM 44.6231 -74.0531 175° South 425 489 21,800 1,700 Climbing Boston Center
Mon 07:31:31 AM 44.5003 -74.0381 175° South 436 502 23,500 1,800 Climbing Boston Center
Mon 07:32:31 AM 44.3650 -74.0197 174° South 441 507 25,400 1,750 Climbing Boston Center
Mon 07:33:31 AM 44.2444 -74.0050 175° South 441 507 27,000 1,311 Climbing Boston Center
Mon 07:34:30 AM 44.1383 -73.9906 174° South 441 507 28,000 1,150 Climbing Boston Center
Mon 07:35:31 AM 44.0031 -73.9697 174° South 441 507 29,300 950 Climbing Boston Center
Mon 07:36:30 AM 43.9033 -73.9528 173° South 441 507 29,900 353 Climbing Boston Center
Mon 07:37:30 AM 43.7514 -73.9375 176° South 448 516 30,000 50 Climbing Boston Center
Mon 07:38:31 AM 43.6244 -73.9200 174° South 459 528 30,000 -446 Level Boston Center
Mon 07:39:31 AM 43.4997 -73.9028 174° South 459 528 29,100 -908 Descending Boston Center
Mon 07:40:30 AM 43.3750 -73.8883 175° South 459 528 28,200 -807 Descending Boston Center
Mon 07:41:30 AM 43.2750 -73.8744 174° South 459 528 27,500 -600 Descending Boston Center
Mon 07:42:30 AM 43.1231 -73.8539 174° South 459 528 27,000 -545 Descending Boston Center
Mon 07:43:42 AM 42.9756 -73.8333 174° South 459 528 26,300 -812 Descending Boston Center
Mon 07:44:43 AM 42.8464 -73.8192 175° South 459 528 25,200 -645 Descending Boston Center
Mon 07:45:43 AM 42.7217 -73.8022 174° South 459 528 25,000 -500 Descending Boston Center
Mon 07:46:43 AM 42.6175 -73.7831 172° South 465 535 24,200 -756 Descending Boston Center
Mon 07:47:42 AM 42.4742 -73.7489 170° South 457 526 23,500 -1,109 Descending Boston Center
Mon 07:48:42 AM 42.3847 -73.7303 171° South 450 518 22,000 -1,537 Descending Boston Center
Mon 07:49:43 AM 42.2556 -73.7247 178° South 404 465 20,400 -1,250 Descending Boston Center
Mon 07:50:42 AM 42.1431 -73.7308 182° South 399 459 19,500 -857 Descending Boston Center
Mon 07:51:42 AM 42.0386 -73.7372 183° South 411 473 18,700 -900 Descending Boston Center
Mon 07:52:42 AM 41.9114 -73.7511 185° South 424 488 17,700 -1,050 Descending Boston Center
Mon 07:53:42 AM 41.8258 -73.7550 182° South 377 434 16,600 -1,339 Descending Boston Center
Mon 07:54:43 AM 41.7300 -73.7669 185° South 325 374 15,000 -1,537 Descending Boston Center
Mon 07:55:43 AM 41.6506 -73.7736 184° South 315 362 13,500 -1,466 Descending Boston Center
Mon 07:57:00 AM 41.5361 -73.8430 190° South  Level FlightAware Approximate
Mon 07:57:39 AM 41.4833 -73.7833 190° South 298 343 10,700  Level New York TRACON
Mon 07:58:39 AM 41.4000 -73.8000 189° South 292 336 9,300 -1,350 Descending New York TRACON
Mon 07:59:39 AM 41.3167 -73.7667 163° South 298 343 8,000 -650 Descending New York TRACON
Mon 08:00:39 AM 41.2500 -73.7167 151° Southeast 295 339 8,000 -50 Level New York TRACON
Mon 08:01:39 AM 41.1833 -73.6500 143° Southeast 293 337 7,900 -900 Descending New York TRACON
Mon 08:02:39 AM 41.1167 -73.6000 151° Southeast 278 320 6,200 -1,700 Descending New York TRACON
Mon 08:03:39 AM 41.0500 -73.6500 209° Southwest 269 310 4,500 -1,100 Descending New York TRACON
Mon 08:04:39 AM 41.0000 -73.7000 217° Southwest 234 269 4,000 -750 Descending New York TRACON
Mon 08:05:39 AM 40.9500 -73.7333 207° Southwest 197 227 3,000 -579 Descending New York TRACON
Mon 08:06:33 AM 40.9167 -73.7667 217° Southwest 188 216 2,900 -632 Descending New York TRACON
Mon 08:07:33 AM 40.8667 -73.8000 207° Southwest 185 213 1,800 -1,100 Descending New York TRACON

Login

Don't have an account? Register now (free) for customized features, flight alerts, and more!